sensor_id;sensor_type;location;lat;lon;timestamp;P1;durP1;ratioP1;P2;durP2;ratioP2
5127;SDS011;2582;48.770;9.190;2023-05-17T00:00:32;2.47;;;1.80;;
5127;SDS011;2582;48.770;9.190;2023-05-17T00:02:57;2.93;;;1.63;;
5127;SDS011;2582;48.770;9.190;2023-05-17T00:05:23;3.40;;;1.90;;
5127;SDS011;2582;48.770;9.190;2023-05-17T00:07:48;3.63;;;2.00;;
5127;SDS011;2582;48.770;9.190;2023-05-17T00:10:14;8.10;;;2.10;;
5127;SDS011;2582;48.770;9.190;2023-05-17T00:12:39;4.33;;;2.13;;
5127;SDS011;2582;48.770;9.190;2023-05-17T00:15:05;2.87;;;2.10;;
5127;SDS011;2582;48.770;9.190;2023-05-17T00:17:31;4.70;;;1.60;;
5127;SDS011;2582;48.770;9.190;2023-05-17T00:19:57;2.07;;;1.77;;
5127;SDS011;2582;48.770;9.190;2023-05-17T00:22:22;3.37;;;1.57;;
5127;SDS011;2582;48.770;9.190;2023-05-17T00:24:48;4.27;;;2.10;;
5127;SDS011;2582;48.770;9.190;2023-05-17T00:27:13;6.87;;;2.60;;
5127;SDS011;2582;48.770;9.190;2023-05-17T00:29:39;4.13;;;2.50;;
5127;SDS011;2582;48.770;9.190;2023-05-17T00:32:04;4.10;;;2.03;;
5127;SDS011;2582;48.770;9.190;2023-05-17T00:34:30;4.83;;;1.80;;
5127;SDS011;2582;48.770;9.190;2023-05-17T00:36:56;3.27;;;2.30;;
5127;SDS011;2582;48.770;9.190;2023-05-17T00:39:21;4.90;;;2.07;;
5127;SDS011;2582;48.770;9.190;2023-05-17T00:41:47;2.67;;;1.77;;
5127;SDS011;2582;48.770;9.190;2023-05-17T00:44:13;6.30;;;2.13;;
5127;SDS011;2582;48.770;9.190;2023-05-17T00:46:38;1.63;;;1.50;;
5127;SDS011;2582;48.770;9.190;2023-05-17T00:49:04;4.80;;;1.80;;
5127;SDS011;2582;48.770;9.190;2023-05-17T00:51:30;4.70;;;2.37;;
5127;SDS011;2582;48.770;9.190;2023-05-17T00:53:57;2.73;;;2.10;;
5127;SDS011;2582;48.770;9.190;2023-05-17T00:56:22;1.53;;;1.40;;
5127;SDS011;2582;48.770;9.190;2023-05-17T00:58:49;3.50;;;1.97;;
5127;SDS011;2582;48.770;9.190;2023-05-17T01:01:14;3.83;;;1.80;;
5127;SDS011;2582;48.770;9.190;2023-05-17T01:03:40;4.27;;;2.23;;
5127;SDS011;2582;48.770;9.190;2023-05-17T01:06:06;8.10;;;2.00;;
5127;SDS011;2582;48.770;9.190;2023-05-17T01:08:32;5.97;;;1.90;;
5127;SDS011;2582;48.770;9.190;2023-05-17T01:11:09;4.13;;;2.53;;
5127;SDS011;2582;48.770;9.190;2023-05-17T01:19:53;3.20;;;1.80;;
5127;SDS011;2582;48.770;9.190;2023-05-17T01:22:32;8.50;;;1.70;;
5127;SDS011;2582;48.770;9.190;2023-05-17T01:28:07;4.77;;;2.37;;
5127;SDS011;2582;48.770;9.190;2023-05-17T01:30:35;3.07;;;2.30;;
5127;SDS011;2582;48.770;9.190;2023-05-17T01:33:02;1.93;;;1.40;;
5127;SDS011;2582;48.770;9.190;2023-05-17T01:35:28;5.60;;;1.80;;
5127;SDS011;2582;48.770;9.190;2023-05-17T01:37:54;4.80;;;2.27;;
5127;SDS011;2582;48.770;9.190;2023-05-17T01:40:19;3.27;;;2.40;;
5127;SDS011;2582;48.770;9.190;2023-05-17T01:42:52;3.90;;;2.20;;
5127;SDS011;2582;48.770;9.190;2023-05-17T01:45:29;3.10;;;1.90;;
5127;SDS011;2582;48.770;9.190;2023-05-17T01:50:42;5.50;;;2.10;;
5127;SDS011;2582;48.770;9.190;2023-05-17T01:53:10;5.10;;;2.47;;
5127;SDS011;2582;48.770;9.190;2023-05-17T01:55:50;3.57;;;1.80;;
5127;SDS011;2582;48.770;9.190;2023-05-17T01:58:20;5.20;;;1.90;;
5127;SDS011;2582;48.770;9.190;2023-05-17T02:00:49;4.13;;;1.93;;
5127;SDS011;2582;48.770;9.190;2023-05-17T02:03:18;2.90;;;1.77;;
5127;SDS011;2582;48.770;9.190;2023-05-17T02:05:44;1.80;;;1.70;;
5127;SDS011;2582;48.770;9.190;2023-05-17T02:08:10;4.10;;;2.00;;
5127;SDS011;2582;48.770;9.190;2023-05-17T02:10:36;3.23;;;2.10;;
5127;SDS011;2582;48.770;9.190;2023-05-17T02:13:01;4.03;;;2.00;;
5127;SDS011;2582;48.770;9.190;2023-05-17T02:15:27;4.17;;;2.00;;
5127;SDS011;2582;48.770;9.190;2023-05-17T02:17:53;2.73;;;2.03;;
5127;SDS011;2582;48.770;9.190;2023-05-17T02:20:18;4.90;;;2.10;;
5127;SDS011;2582;48.770;9.190;2023-05-17T02:22:44;3.97;;;1.70;;
5127;SDS011;2582;48.770;9.190;2023-05-17T02:25:09;5.73;;;2.30;;
5127;SDS011;2582;48.770;9.190;2023-05-17T02:27:35;4.80;;;1.60;;
5127;SDS011;2582;48.770;9.190;2023-05-17T02:30:01;3.17;;;2.00;;
5127;SDS011;2582;48.770;9.190;2023-05-17T02:32:28;4.33;;;1.70;;
5127;SDS011;2582;48.770;9.190;2023-05-17T02:34:54;3.97;;;1.93;;
5127;SDS011;2582;48.770;9.190;2023-05-17T02:37:20;3.97;;;2.27;;
5127;SDS011;2582;48.770;9.190;2023-05-17T02:39:45;5.20;;;2.00;;
5127;SDS011;2582;48.770;9.190;2023-05-17T02:42:11;2.60;;;1.70;;
5127;SDS011;2582;48.770;9.190;2023-05-17T02:44:37;3.67;;;1.80;;
5127;SDS011;2582;48.770;9.190;2023-05-17T02:47:02;3.00;;;1.90;;
5127;SDS011;2582;48.770;9.190;2023-05-17T02:49:28;2.97;;;1.87;;
5127;SDS011;2582;48.770;9.190;2023-05-17T02:51:53;4.93;;;2.23;;
5127;SDS011;2582;48.770;9.190;2023-05-17T02:54:20;3.70;;;1.80;;
5127;SDS011;2582;48.770;9.190;2023-05-17T02:56:45;2.60;;;1.93;;
5127;SDS011;2582;48.770;9.190;2023-05-17T02:59:11;2.70;;;1.80;;
5127;SDS011;2582;48.770;9.190;2023-05-17T03:01:36;2.43;;;1.87;;
5127;SDS011;2582;48.770;9.190;2023-05-17T03:04:02;3.57;;;1.80;;
5127;SDS011;2582;48.770;9.190;2023-05-17T03:06:27;3.23;;;2.13;;
5127;SDS011;2582;48.770;9.190;2023-05-17T03:08:53;4.27;;;2.10;;
5127;SDS011;2582;48.770;9.190;2023-05-17T03:11:18;2.60;;;2.33;;
5127;SDS011;2582;48.770;9.190;2023-05-17T03:13:44;4.57;;;2.40;;
5127;SDS011;2582;48.770;9.190;2023-05-17T03:16:18;3.93;;;2.30;;
5127;SDS011;2582;48.770;9.190;2023-05-17T03:18:44;2.20;;;2.00;;
5127;SDS011;2582;48.770;9.190;2023-05-17T03:21:10;5.30;;;3.00;;
5127;SDS011;2582;48.770;9.190;2023-05-17T03:23:35;2.57;;;2.00;;
5127;SDS011;2582;48.770;9.190;2023-05-17T03:26:01;3.60;;;2.20;;
5127;SDS011;2582;48.770;9.190;2023-05-17T03:28:26;2.60;;;1.90;;
5127;SDS011;2582;48.770;9.190;2023-05-17T03:30:52;4.63;;;2.37;;
5127;SDS011;2582;48.770;9.190;2023-05-17T03:33:18;3.23;;;2.40;;
5127;SDS011;2582;48.770;9.190;2023-05-17T03:35:43;3.33;;;1.87;;
5127;SDS011;2582;48.770;9.190;2023-05-17T03:38:11;3.97;;;2.53;;
5127;SDS011;2582;48.770;9.190;2023-05-17T03:40:36;3.43;;;2.10;;
5127;SDS011;2582;48.770;9.190;2023-05-17T03:43:02;2.00;;;1.80;;
5127;SDS011;2582;48.770;9.190;2023-05-17T03:45:27;2.30;;;2.00;;
5127;SDS011;2582;48.770;9.190;2023-05-17T03:47:53;4.30;;;2.40;;
5127;SDS011;2582;48.770;9.190;2023-05-17T03:50:18;8.13;;;2.43;;
5127;SDS011;2582;48.770;9.190;2023-05-17T03:52:44;6.30;;;2.30;;
5127;SDS011;2582;48.770;9.190;2023-05-17T03:55:10;4.23;;;2.13;;
5127;SDS011;2582;48.770;9.190;2023-05-17T03:57:36;4.40;;;1.97;;
5127;SDS011;2582;48.770;9.190;2023-05-17T04:00:01;2.67;;;1.97;;
5127;SDS011;2582;48.770;9.190;2023-05-17T04:02:30;2.20;;;1.87;;
5127;SDS011;2582;48.770;9.190;2023-05-17T04:04:56;3.63;;;2.50;;
5127;SDS011;2582;48.770;9.190;2023-05-17T04:07:21;2.90;;;2.63;;
5127;SDS011;2582;48.770;9.190;2023-05-17T04:09:47;4.17;;;2.17;;
5127;SDS011;2582;48.770;9.190;2023-05-17T04:12:12;3.00;;;2.10;;
5127;SDS011;2582;48.770;9.190;2023-05-17T04:14:38;5.27;;;2.30;;
5127;SDS011;2582;48.770;9.190;2023-05-17T04:17:05;3.47;;;2.60;;
5127;SDS011;2582;48.770;9.190;2023-05-17T04:19:30;2.93;;;2.43;;
5127;SDS011;2582;48.770;9.190;2023-05-17T04:21:56;3.70;;;2.27;;
5127;SDS011;2582;48.770;9.190;2023-05-17T04:24:22;3.17;;;2.13;;
5127;SDS011;2582;48.770;9.190;2023-05-17T04:26:47;3.37;;;2.10;;
5127;SDS011;2582;48.770;9.190;2023-05-17T04:29:13;2.80;;;1.87;;
5127;SDS011;2582;48.770;9.190;2023-05-17T04:31:38;3.07;;;2.20;;
5127;SDS011;2582;48.770;9.190;2023-05-17T04:34:39;5.70;;;2.10;;
5127;SDS011;2582;48.770;9.190;2023-05-17T04:37:05;3.10;;;2.80;;
5127;SDS011;2582;48.770;9.190;2023-05-17T04:39:31;3.70;;;3.23;;
5127;SDS011;2582;48.770;9.190;2023-05-17T04:41:56;4.80;;;3.10;;
5127;SDS011;2582;48.770;9.190;2023-05-17T04:44:22;7.80;;;4.53;;
5127;SDS011;2582;48.770;9.190;2023-05-17T04:46:47;6.20;;;5.00;;
5127;SDS011;2582;48.770;9.190;2023-05-17T04:49:13;8.53;;;4.17;;
5127;SDS011;2582;48.770;9.190;2023-05-17T04:51:39;7.70;;;3.30;;
5127;SDS011;2582;48.770;9.190;2023-05-17T04:54:04;6.90;;;5.03;;
5127;SDS011;2582;48.770;9.190;2023-05-17T04:56:33;5.90;;;3.40;;
5127;SDS011;2582;48.770;9.190;2023-05-17T04:58:59;5.00;;;3.80;;
5127;SDS011;2582;48.770;9.190;2023-05-17T05:01:24;6.10;;;3.80;;
5127;SDS011;2582;48.770;9.190;2023-05-17T05:03:50;4.37;;;3.57;;
5127;SDS011;2582;48.770;9.190;2023-05-17T05:06:16;6.83;;;2.80;;
5127;SDS011;2582;48.770;9.190;2023-05-17T05:08:41;4.30;;;3.00;;
5127;SDS011;2582;48.770;9.190;2023-05-17T05:11:07;3.60;;;2.60;;
5127;SDS011;2582;48.770;9.190;2023-05-17T05:13:32;2.53;;;2.30;;
5127;SDS011;2582;48.770;9.190;2023-05-17T05:15:58;3.10;;;2.43;;
5127;SDS011;2582;48.770;9.190;2023-05-17T05:18:24;5.97;;;2.93;;
5127;SDS011;2582;48.770;9.190;2023-05-17T05:20:49;6.60;;;2.40;;
5127;SDS011;2582;48.770;9.190;2023-05-17T05:23:15;5.93;;;2.60;;
5127;SDS011;2582;48.770;9.190;2023-05-17T05:25:42;5.20;;;2.57;;
5127;SDS011;2582;48.770;9.190;2023-05-17T05:28:08;5.27;;;3.60;;
5127;SDS011;2582;48.770;9.190;2023-05-17T05:30:33;6.10;;;5.50;;
5127;SDS011;2582;48.770;9.190;2023-05-17T05:32:59;5.23;;;3.53;;
5127;SDS011;2582;48.770;9.190;2023-05-17T05:35:25;5.97;;;2.40;;
5127;SDS011;2582;48.770;9.190;2023-05-17T05:37:54;2.83;;;2.27;;
5127;SDS011;2582;48.770;9.190;2023-05-17T05:40:20;7.30;;;6.70;;
5127;SDS011;2582;48.770;9.190;2023-05-17T05:42:46;5.40;;;2.20;;
5127;SDS011;2582;48.770;9.190;2023-05-17T05:45:12;9.73;;;5.27;;
5127;SDS011;2582;48.770;9.190;2023-05-17T05:47:37;5.13;;;2.37;;
5127;SDS011;2582;48.770;9.190;2023-05-17T05:50:04;5.07;;;2.37;;
5127;SDS011;2582;48.770;9.190;2023-05-17T05:52:30;7.27;;;3.00;;
5127;SDS011;2582;48.770;9.190;2023-05-17T05:54:56;5.37;;;2.50;;
5127;SDS011;2582;48.770;9.190;2023-05-17T05:57:21;4.60;;;2.60;;
5127;SDS011;2582;48.770;9.190;2023-05-17T05:59:47;5.97;;;2.33;;
5127;SDS011;2582;48.770;9.190;2023-05-17T06:02:12;13.40;;;5.13;;
5127;SDS011;2582;48.770;9.190;2023-05-17T06:04:38;6.27;;;2.90;;
5127;SDS011;2582;48.770;9.190;2023-05-17T06:07:04;5.30;;;3.00;;
5127;SDS011;2582;48.770;9.190;2023-05-17T06:09:29;7.50;;;3.20;;
5127;SDS011;2582;48.770;9.190;2023-05-17T06:11:55;5.00;;;2.47;;
5127;SDS011;2582;48.770;9.190;2023-05-17T06:14:20;3.90;;;2.30;;
5127;SDS011;2582;48.770;9.190;2023-05-17T06:16:46;5.33;;;2.50;;
5127;SDS011;2582;48.770;9.190;2023-05-17T06:19:12;7.10;;;2.83;;
5127;SDS011;2582;48.770;9.190;2023-05-17T06:21:38;6.13;;;2.90;;
5127;SDS011;2582;48.770;9.190;2023-05-17T06:24:04;6.13;;;2.30;;
5127;SDS011;2582;48.770;9.190;2023-05-17T06:26:30;6.43;;;3.30;;
5127;SDS011;2582;48.770;9.190;2023-05-17T06:28:55;4.80;;;2.77;;
5127;SDS011;2582;48.770;9.190;2023-05-17T06:31:21;3.63;;;2.80;;
5127;SDS011;2582;48.770;9.190;2023-05-17T06:33:46;5.83;;;2.80;;
5127;SDS011;2582;48.770;9.190;2023-05-17T06:36:12;5.17;;;2.80;;
5127;SDS011;2582;48.770;9.190;2023-05-17T06:38:38;5.40;;;2.77;;
5127;SDS011;2582;48.770;9.190;2023-05-17T06:41:04;3.33;;;2.70;;
5127;SDS011;2582;48.770;9.190;2023-05-17T06:43:29;3.10;;;2.30;;
5127;SDS011;2582;48.770;9.190;2023-05-17T06:45:55;4.47;;;2.80;;
5127;SDS011;2582;48.770;9.190;2023-05-17T06:48:21;5.10;;;3.10;;
5127;SDS011;2582;48.770;9.190;2023-05-17T06:50:47;6.33;;;2.90;;
5127;SDS011;2582;48.770;9.190;2023-05-17T06:53:12;6.67;;;3.17;;
5127;SDS011;2582;48.770;9.190;2023-05-17T06:55:38;5.73;;;3.47;;
5127;SDS011;2582;48.770;9.190;2023-05-17T06:58:05;3.73;;;2.63;;
5127;SDS011;2582;48.770;9.190;2023-05-17T07:00:30;4.90;;;2.30;;
5127;SDS011;2582;48.770;9.190;2023-05-17T07:02:56;9.30;;;4.03;;
5127;SDS011;2582;48.770;9.190;2023-05-17T07:05:21;8.23;;;3.33;;
5127;SDS011;2582;48.770;9.190;2023-05-17T07:07:51;6.40;;;3.03;;
5127;SDS011;2582;48.770;9.190;2023-05-17T07:10:17;6.37;;;3.40;;
5127;SDS011;2582;48.770;9.190;2023-05-17T07:12:43;8.43;;;3.20;;
5127;SDS011;2582;48.770;9.190;2023-05-17T07:15:08;6.97;;;3.20;;
5127;SDS011;2582;48.770;9.190;2023-05-17T07:17:35;5.67;;;3.50;;
5127;SDS011;2582;48.770;9.190;2023-05-17T07:20:01;4.03;;;3.00;;
5127;SDS011;2582;48.770;9.190;2023-05-17T07:22:27;6.20;;;3.77;;
5127;SDS011;2582;48.770;9.190;2023-05-17T07:24:52;6.00;;;3.40;;
5127;SDS011;2582;48.770;9.190;2023-05-17T07:27:18;7.97;;;3.40;;
5127;SDS011;2582;48.770;9.190;2023-05-17T07:29:44;6.00;;;3.33;;
5127;SDS011;2582;48.770;9.190;2023-05-17T07:32:10;7.30;;;3.23;;
5127;SDS011;2582;48.770;9.190;2023-05-17T07:34:35;5.43;;;3.67;;
5127;SDS011;2582;48.770;9.190;2023-05-17T07:37:01;9.40;;;3.43;;
5127;SDS011;2582;48.770;9.190;2023-05-17T07:39:27;6.10;;;3.17;;
5127;SDS011;2582;48.770;9.190;2023-05-17T07:41:52;6.28;;;3.35;;
5127;SDS011;2582;48.770;9.190;2023-05-17T07:44:18;6.47;;;3.37;;
5127;SDS011;2582;48.770;9.190;2023-05-17T07:46:45;5.03;;;3.67;;
5127;SDS011;2582;48.770;9.190;2023-05-17T07:49:11;9.20;;;4.40;;
5127;SDS011;2582;48.770;9.190;2023-05-17T07:51:37;8.40;;;4.03;;
5127;SDS011;2582;48.770;9.190;2023-05-17T07:54:03;5.53;;;4.10;;
5127;SDS011;2582;48.770;9.190;2023-05-17T07:56:29;5.30;;;3.53;;
5127;SDS011;2582;48.770;9.190;2023-05-17T07:58:54;8.73;;;3.50;;
5127;SDS011;2582;48.770;9.190;2023-05-17T08:01:20;6.70;;;3.10;;
5127;SDS011;2582;48.770;9.190;2023-05-17T08:03:47;6.00;;;3.90;;
5127;SDS011;2582;48.770;9.190;2023-05-17T08:06:13;8.20;;;3.73;;
5127;SDS011;2582;48.770;9.190;2023-05-17T08:08:40;5.47;;;3.93;;
5127;SDS011;2582;48.770;9.190;2023-05-17T08:11:06;5.27;;;3.77;;
5127;SDS011;2582;48.770;9.190;2023-05-17T08:13:33;7.50;;;3.83;;
5127;SDS011;2582;48.770;9.190;2023-05-17T08:15:58;6.90;;;3.60;;
5127;SDS011;2582;48.770;9.190;2023-05-17T08:18:27;4.73;;;3.50;;
5127;SDS011;2582;48.770;9.190;2023-05-17T08:20:56;6.40;;;3.63;;
5127;SDS011;2582;48.770;9.190;2023-05-17T08:23:22;4.60;;;3.80;;
5127;SDS011;2582;48.770;9.190;2023-05-17T08:25:47;3.70;;;3.20;;
5127;SDS011;2582;48.770;9.190;2023-05-17T08:28:13;6.40;;;3.27;;
5127;SDS011;2582;48.770;9.190;2023-05-17T08:30:38;5.63;;;3.80;;
5127;SDS011;2582;48.770;9.190;2023-05-17T08:33:05;4.90;;;3.50;;
5127;SDS011;2582;48.770;9.190;2023-05-17T08:35:30;6.63;;;4.27;;
5127;SDS011;2582;48.770;9.190;2023-05-17T08:37:56;6.03;;;3.53;;
5127;SDS011;2582;48.770;9.190;2023-05-17T08:40:21;6.00;;;4.10;;
5127;SDS011;2582;48.770;9.190;2023-05-17T08:42:47;5.90;;;3.63;;
5127;SDS011;2582;48.770;9.190;2023-05-17T08:45:16;6.00;;;4.07;;
5127;SDS011;2582;48.770;9.190;2023-05-17T08:47:42;5.73;;;3.70;;
5127;SDS011;2582;48.770;9.190;2023-05-17T08:50:10;5.10;;;3.70;;
5127;SDS011;2582;48.770;9.190;2023-05-17T08:52:37;4.03;;;3.63;;
5127;SDS011;2582;48.770;9.190;2023-05-17T08:55:04;6.23;;;3.70;;
5127;SDS011;2582;48.770;9.190;2023-05-17T08:57:32;6.53;;;4.60;;
5127;SDS011;2582;48.770;9.190;2023-05-17T09:00:01;6.80;;;4.30;;
5127;SDS011;2582;48.770;9.190;2023-05-17T09:02:36;5.90;;;4.43;;
5127;SDS011;2582;48.770;9.190;2023-05-17T09:05:02;4.87;;;4.10;;
5127;SDS011;2582;48.770;9.190;2023-05-17T09:07:30;8.03;;;4.47;;
5127;SDS011;2582;48.770;9.190;2023-05-17T09:09:56;7.90;;;4.03;;
5127;SDS011;2582;48.770;9.190;2023-05-17T09:12:22;5.80;;;4.50;;
5127;SDS011;2582;48.770;9.190;2023-05-17T09:14:48;5.20;;;3.40;;
5127;SDS011;2582;48.770;9.190;2023-05-17T09:17:15;5.40;;;4.00;;
5127;SDS011;2582;48.770;9.190;2023-05-17T09:19:42;10.53;;;5.13;;
5127;SDS011;2582;48.770;9.190;2023-05-17T09:22:11;5.73;;;4.00;;
5127;SDS011;2582;48.770;9.190;2023-05-17T09:24:38;9.20;;;4.20;;
5127;SDS011;2582;48.770;9.190;2023-05-17T09:27:05;6.50;;;4.30;;
5127;SDS011;2582;48.770;9.190;2023-05-17T09:29:31;7.00;;;3.57;;
5127;SDS011;2582;48.770;9.190;2023-05-17T09:32:06;6.27;;;3.80;;
5127;SDS011;2582;48.770;9.190;2023-05-17T09:34:37;4.90;;;4.00;;
5127;SDS011;2582;48.770;9.190;2023-05-17T09:37:05;4.90;;;3.77;;
5127;SDS011;2582;48.770;9.190;2023-05-17T09:39:30;7.30;;;3.77;;
5127;SDS011;2582;48.770;9.190;2023-05-17T09:41:56;5.33;;;3.83;;
5127;SDS011;2582;48.770;9.190;2023-05-17T09:44:22;6.40;;;3.87;;
5127;SDS011;2582;48.770;9.190;2023-05-17T09:46:49;5.70;;;3.50;;
5127;SDS011;2582;48.770;9.190;2023-05-17T09:49:15;5.10;;;3.70;;
5127;SDS011;2582;48.770;9.190;2023-05-17T09:51:42;6.60;;;3.57;;
5127;SDS011;2582;48.770;9.190;2023-05-17T09:54:09;5.57;;;3.97;;
5127;SDS011;2582;48.770;9.190;2023-05-17T09:56:34;5.27;;;4.23;;
5127;SDS011;2582;48.770;9.190;2023-05-17T09:59:01;4.13;;;3.40;;
5127;SDS011;2582;48.770;9.190;2023-05-17T10:01:28;5.73;;;3.50;;
5127;SDS011;2582;48.770;9.190;2023-05-17T10:03:55;5.67;;;3.67;;
5127;SDS011;2582;48.770;9.190;2023-05-17T10:06:28;5.90;;;3.07;;
5127;SDS011;2582;48.770;9.190;2023-05-17T10:08:56;4.30;;;2.93;;
5127;SDS011;2582;48.770;9.190;2023-05-17T10:11:25;4.67;;;3.87;;
5127;SDS011;2582;48.770;9.190;2023-05-17T10:16:42;4.27;;;3.00;;
5127;SDS011;2582;48.770;9.190;2023-05-17T10:19:09;6.97;;;3.30;;
5127;SDS011;2582;48.770;9.190;2023-05-17T10:21:36;5.40;;;3.50;;
5127;SDS011;2582;48.770;9.190;2023-05-17T10:24:03;5.83;;;3.90;;
5127;SDS011;2582;48.770;9.190;2023-05-17T10:26:30;4.20;;;3.43;;
5127;SDS011;2582;48.770;9.190;2023-05-17T10:28:57;7.13;;;3.60;;
5127;SDS011;2582;48.770;9.190;2023-05-17T10:31:28;4.50;;;3.20;;
5127;SDS011;2582;48.770;9.190;2023-05-17T10:33:54;5.10;;;3.37;;
5127;SDS011;2582;48.770;9.190;2023-05-17T10:36:21;5.47;;;3.60;;
5127;SDS011;2582;48.770;9.190;2023-05-17T10:38:48;9.10;;;4.07;;
5127;SDS011;2582;48.770;9.190;2023-05-17T10:41:14;5.97;;;4.13;;
5127;SDS011;2582;48.770;9.190;2023-05-17T10:43:42;5.23;;;3.63;;
5127;SDS011;2582;48.770;9.190;2023-05-17T10:46:15;4.20;;;3.13;;
5127;SDS011;2582;48.770;9.190;2023-05-17T10:48:46;6.90;;;4.07;;
5127;SDS011;2582;48.770;9.190;2023-05-17T10:51:14;5.63;;;3.93;;
5127;SDS011;2582;48.770;9.190;2023-05-17T10:56:40;6.90;;;3.67;;
5127;SDS011;2582;48.770;9.190;2023-05-17T10:59:18;7.43;;;3.70;;
5127;SDS011;2582;48.770;9.190;2023-05-17T11:04:36;5.47;;;3.53;;
5127;SDS011;2582;48.770;9.190;2023-05-17T11:20:08;6.87;;;4.27;;
5127;SDS011;2582;48.770;9.190;2023-05-17T11:22:57;4.83;;;3.83;;
5127;SDS011;2582;48.770;9.190;2023-05-17T11:25:23;6.83;;;3.97;;
5127;SDS011;2582;48.770;9.190;2023-05-17T11:27:51;6.63;;;4.10;;
5127;SDS011;2582;48.770;9.190;2023-05-17T11:30:18;6.10;;;4.17;;
5127;SDS011;2582;48.770;9.190;2023-05-17T11:32:48;6.77;;;4.10;;
5127;SDS011;2582;48.770;9.190;2023-05-17T11:35:18;6.00;;;4.40;;
5127;SDS011;2582;48.770;9.190;2023-05-17T11:37:50;5.83;;;4.50;;
5127;SDS011;2582;48.770;9.190;2023-05-17T11:40:23;7.53;;;3.33;;
5127;SDS011;2582;48.770;9.190;2023-05-17T11:43:08;6.23;;;4.40;;
5127;SDS011;2582;48.770;9.190;2023-05-17T11:45:56;6.50;;;4.27;;
5127;SDS011;2582;48.770;9.190;2023-05-17T11:48:25;4.80;;;3.53;;
5127;SDS011;2582;48.770;9.190;2023-05-17T11:50:52;9.10;;;4.30;;
5127;SDS011;2582;48.770;9.190;2023-05-17T11:53:19;6.47;;;3.93;;
5127;SDS011;2582;48.770;9.190;2023-05-17T11:55:46;3.97;;;3.43;;
5127;SDS011;2582;48.770;9.190;2023-05-17T11:58:15;5.33;;;3.13;;
5127;SDS011;2582;48.770;9.190;2023-05-17T12:00:50;7.17;;;3.70;;
5127;SDS011;2582;48.770;9.190;2023-05-17T12:03:22;5.27;;;3.20;;
5127;SDS011;2582;48.770;9.190;2023-05-17T12:05:49;3.93;;;3.17;;
5127;SDS011;2582;48.770;9.190;2023-05-17T12:08:24;6.83;;;3.67;;
5127;SDS011;2582;48.770;9.190;2023-05-17T12:10:51;3.67;;;3.20;;
5127;SDS011;2582;48.770;9.190;2023-05-17T12:13:17;5.77;;;3.80;;
5127;SDS011;2582;48.770;9.190;2023-05-17T12:15:44;6.43;;;3.30;;
5127;SDS011;2582;48.770;9.190;2023-05-17T12:18:14;6.83;;;3.50;;
5127;SDS011;2582;48.770;9.190;2023-05-17T12:20:53;6.23;;;3.50;;
5127;SDS011;2582;48.770;9.190;2023-05-17T12:23:26;5.63;;;3.40;;
5127;SDS011;2582;48.770;9.190;2023-05-17T12:26:03;7.40;;;3.93;;
5127;SDS011;2582;48.770;9.190;2023-05-17T12:28:33;4.47;;;3.40;;
5127;SDS011;2582;48.770;9.190;2023-05-17T12:31:00;7.37;;;3.53;;
5127;SDS011;2582;48.770;9.190;2023-05-17T12:33:30;5.80;;;3.40;;
5127;SDS011;2582;48.770;9.190;2023-05-17T12:35:59;5.73;;;3.93;;
5127;SDS011;2582;48.770;9.190;2023-05-17T12:38:26;7.43;;;3.87;;
5127;SDS011;2582;48.770;9.190;2023-05-17T12:40:56;6.90;;;3.67;;
5127;SDS011;2582;48.770;9.190;2023-05-17T12:43:23;3.80;;;3.20;;
5127;SDS011;2582;48.770;9.190;2023-05-17T12:45:49;7.00;;;3.77;;
5127;SDS011;2582;48.770;9.190;2023-05-17T12:48:16;5.10;;;3.13;;
5127;SDS011;2582;48.770;9.190;2023-05-17T12:50:41;5.80;;;4.10;;
5127;SDS011;2582;48.770;9.190;2023-05-17T12:53:11;7.00;;;4.20;;
5127;SDS011;2582;48.770;9.190;2023-05-17T12:55:36;6.00;;;3.70;;
5127;SDS011;2582;48.770;9.190;2023-05-17T12:58:02;6.23;;;4.13;;
5127;SDS011;2582;48.770;9.190;2023-05-17T13:00:31;4.93;;;3.60;;
5127;SDS011;2582;48.770;9.190;2023-05-17T13:02:57;5.03;;;3.57;;
5127;SDS011;2582;48.770;9.190;2023-05-17T13:05:22;4.10;;;3.37;;
5127;SDS011;2582;48.770;9.190;2023-05-17T13:07:52;5.00;;;3.57;;
5127;SDS011;2582;48.770;9.190;2023-05-17T13:10:25;6.37;;;3.97;;
5127;SDS011;2582;48.770;9.190;2023-05-17T13:12:54;5.67;;;4.00;;
5127;SDS011;2582;48.770;9.190;2023-05-17T13:15:25;5.40;;;3.60;;
5127;SDS011;2582;48.770;9.190;2023-05-17T13:17:54;5.60;;;3.67;;
5127;SDS011;2582;48.770;9.190;2023-05-17T13:20:20;4.83;;;3.67;;
5127;SDS011;2582;48.770;9.190;2023-05-17T13:22:46;8.10;;;3.80;;
5127;SDS011;2582;48.770;9.190;2023-05-17T13:25:12;6.80;;;3.50;;
5127;SDS011;2582;48.770;9.190;2023-05-17T13:27:38;4.47;;;3.47;;
5127;SDS011;2582;48.770;9.190;2023-05-17T13:30:09;7.27;;;3.20;;
5127;SDS011;2582;48.770;9.190;2023-05-17T13:32:35;6.10;;;3.93;;
5127;SDS011;2582;48.770;9.190;2023-05-17T13:35:01;4.23;;;3.30;;
5127;SDS011;2582;48.770;9.190;2023-05-17T13:37:27;4.80;;;3.10;;
5127;SDS011;2582;48.770;9.190;2023-05-17T13:39:53;5.50;;;3.43;;
5127;SDS011;2582;48.770;9.190;2023-05-17T13:42:20;4.77;;;3.53;;
5127;SDS011;2582;48.770;9.190;2023-05-17T13:44:46;6.43;;;3.50;;
5127;SDS011;2582;48.770;9.190;2023-05-17T13:47:12;5.30;;;4.10;;
5127;SDS011;2582;48.770;9.190;2023-05-17T13:49:37;6.87;;;3.67;;
5127;SDS011;2582;48.770;9.190;2023-05-17T13:52:03;4.77;;;3.83;;
5127;SDS011;2582;48.770;9.190;2023-05-17T13:54:32;7.03;;;3.50;;
5127;SDS011;2582;48.770;9.190;2023-05-17T13:56:58;6.07;;;3.70;;
5127;SDS011;2582;48.770;9.190;2023-05-17T13:59:24;6.03;;;3.93;;
5127;SDS011;2582;48.770;9.190;2023-05-17T14:01:50;4.73;;;3.30;;
5127;SDS011;2582;48.770;9.190;2023-05-17T14:04:15;4.13;;;3.20;;
5127;SDS011;2582;48.770;9.190;2023-05-17T14:06:41;3.63;;;3.10;;
5127;SDS011;2582;48.770;9.190;2023-05-17T14:09:07;6.77;;;3.60;;
5127;SDS011;2582;48.770;9.190;2023-05-17T14:11:32;4.80;;;3.60;;
5127;SDS011;2582;48.770;9.190;2023-05-17T14:13:58;4.77;;;3.73;;
5127;SDS011;2582;48.770;9.190;2023-05-17T14:16:25;8.90;;;3.47;;
5127;SDS011;2582;48.770;9.190;2023-05-17T14:18:50;4.60;;;3.70;;
5127;SDS011;2582;48.770;9.190;2023-05-17T14:21:16;5.90;;;4.40;;
5127;SDS011;2582;48.770;9.190;2023-05-17T14:23:42;7.63;;;4.33;;
5127;SDS011;2582;48.770;9.190;2023-05-17T14:26:07;5.60;;;3.20;;
5127;SDS011;2582;48.770;9.190;2023-05-17T14:28:33;5.37;;;3.97;;
5127;SDS011;2582;48.770;9.190;2023-05-17T14:31:02;5.20;;;3.53;;
5127;SDS011;2582;48.770;9.190;2023-05-17T14:33:28;5.03;;;3.23;;
5127;SDS011;2582;48.770;9.190;2023-05-17T14:35:53;3.70;;;3.33;;
5127;SDS011;2582;48.770;9.190;2023-05-17T14:38:19;5.00;;;3.37;;
5127;SDS011;2582;48.770;9.190;2023-05-17T14:40:46;4.30;;;3.60;;
5127;SDS011;2582;48.770;9.190;2023-05-17T14:43:12;4.43;;;3.50;;
5127;SDS011;2582;48.770;9.190;2023-05-17T14:45:38;4.20;;;3.37;;
5127;SDS011;2582;48.770;9.190;2023-05-17T14:48:03;6.73;;;3.97;;
5127;SDS011;2582;48.770;9.190;2023-05-17T14:50:29;3.93;;;3.50;;
5127;SDS011;2582;48.770;9.190;2023-05-17T14:52:58;6.13;;;3.70;;
5127;SDS011;2582;48.770;9.190;2023-05-17T14:55:26;5.93;;;3.40;;
5127;SDS011;2582;48.770;9.190;2023-05-17T14:57:54;5.97;;;3.90;;
5127;SDS011;2582;48.770;9.190;2023-05-17T15:00:21;7.00;;;3.30;;
5127;SDS011;2582;48.770;9.190;2023-05-17T15:02:48;4.60;;;3.80;;
5127;SDS011;2582;48.770;9.190;2023-05-17T15:05:14;4.90;;;3.40;;
5127;SDS011;2582;48.770;9.190;2023-05-17T15:07:40;6.23;;;3.90;;
5127;SDS011;2582;48.770;9.190;2023-05-17T15:10:06;5.10;;;3.67;;
5127;SDS011;2582;48.770;9.190;2023-05-17T15:12:32;5.57;;;3.77;;
5127;SDS011;2582;48.770;9.190;2023-05-17T15:14:58;5.17;;;3.80;;
5127;SDS011;2582;48.770;9.190;2023-05-17T15:17:24;12.43;;;3.87;;
5127;SDS011;2582;48.770;9.190;2023-05-17T15:19:50;4.60;;;3.40;;
5127;SDS011;2582;48.770;9.190;2023-05-17T15:22:16;4.70;;;3.87;;
5127;SDS011;2582;48.770;9.190;2023-05-17T15:24:43;6.30;;;4.30;;
5127;SDS011;2582;48.770;9.190;2023-05-17T15:27:08;5.13;;;4.20;;
5127;SDS011;2582;48.770;9.190;2023-05-17T15:29:36;5.57;;;3.20;;
5127;SDS011;2582;48.770;9.190;2023-05-17T15:32:04;9.33;;;3.87;;
5127;SDS011;2582;48.770;9.190;2023-05-17T15:34:30;4.30;;;3.40;;
5127;SDS011;2582;48.770;9.190;2023-05-17T15:36:56;6.67;;;3.70;;
5127;SDS011;2582;48.770;9.190;2023-05-17T15:39:22;3.97;;;3.57;;
5127;SDS011;2582;48.770;9.190;2023-05-17T15:41:48;5.47;;;3.50;;
5127;SDS011;2582;48.770;9.190;2023-05-17T15:44:13;4.40;;;3.33;;
5127;SDS011;2582;48.770;9.190;2023-05-17T15:46:39;4.63;;;3.67;;